Star Mariella — V7KK3 — position and weather

sailwx.info

Track history (hours):
 
Tides and Currents Weather Stations Pressure Air Temp Water Temp Dewpoint Dewpoint Depression Visibility Wind Speed Wind Dir Waves Ship Positions

Star Mariella

Last reported at 2018-Feb-21 02:00 UTC. Time now 2018-Feb-21 02:02 UTC.
Position N 33°39' E 130°19'.

Length 229 m; draft 11.9 m.

Type: Cargo ship. MMSI: 538002632.

Date/timePositionNaut miles runAvg speedWind from/ knotsBaromVisibWave heightAir tempDewpointWater temp
2018-Feb-21 02:00N 33°39' E 130°19'2 4.8
2018-Feb-21 01:30N 33°38' E 130°16'0 0.4
2018-Feb-21 00:55N 33°38' E 130°16'0 0.0
2018-Feb-21 00:28N 33°38' E 130°16'0 0.0
2018-Feb-20 23:55N 33°38' E 130°16'0 0.0
2018-Feb-20 23:28N 33°38' E 130°16'0 0.2
2018-Feb-20 22:58N 33°38' E 130°16'0 0.1
2018-Feb-20 22:28N 33°38' E 130°16'0 0.1
2018-Feb-20 21:55N 33°38' E 130°16'0 0.2
2018-Feb-20 21:25N 33°38' E 130°16'0 0.1
2018-Feb-20 20:55N 33°38' E 130°16'0 0.1
2018-Feb-20 20:28N 33°39' E 130°16'0 0.1
2018-Feb-20 19:58N 33°38' E 130°16'0 0.0
2018-Feb-20 19:25N 33°39' E 130°16'0 0.0
2018-Feb-20 18:58N 33°39' E 130°16'0 0.0
2018-Feb-20 18:28N 33°38' E 130°16'0 0.1
2018-Feb-20 17:58N 33°38' E 130°16'0 0.0
2018-Feb-20 17:28N 33°38' E 130°16'0 0.1
2018-Feb-20 16:55N 33°38' E 130°16'0 0.1
2018-Feb-20 16:30N 33°38' E 130°16'0 0.9
2018-Feb-20 16:00N 33°39' E 130°16'3 6.3
2018-Feb-20 15:30N 33°42' E 130°15'4 7.1
2018-Feb-20 15:00N 33°46' E 130°14'510.7
2018-Feb-20 14:30N 33°51' E 130°14'611.1
2018-Feb-20 14:00N 33°56' E 130°13'510.6
2018-Feb-20 13:30N 34°02' E 130°13'611.1
2018-Feb-20 13:00N 34°07' E 130°14'611.2
2018-Feb-20 12:30N 34°13' E 130°15'611.0
2018-Feb-20 12:00N 34°18' E 130°15'611.0
2018-Feb-20 11:30N 34°23' E 130°19'611.0
2018-Feb-20 11:00N 34°27' E 130°23'610.9
2018-Feb-20 10:27N 34°33' E 130°26'910.8
2018-Feb-20 09:38N 34°40' E 130°33'410.7
2018-Feb-20 09:15N 34°43' E 130°36'510.7
2018-Feb-20 08:44N 34°47' E 130°40'310.4
2018-Feb-20 08:25N 34°50' E 130°42'  
2018-Feb-17 20:49N 41°21' E 140°17'2 7.1
2018-Feb-17 20:30N 41°22' E 140°19'4 8.0
2018-Feb-17 20:00N 41°24' E 140°24'5 9.3
2018-Feb-17 19:30N 41°26' E 140°29'510.1
2018-Feb-17 19:00N 41°29' E 140°34'5 9.8
2018-Feb-17 18:30N 41°32' E 140°40'5 9.3
2018-Feb-17 18:00N 41°35' E 140°45'4 7.8
2018-Feb-17 17:30N 41°37' E 140°49'3 6.9
2018-Feb-17 17:00N 41°38' E 140°54'3 6.3
2018-Feb-17 16:30N 41°38' E 140°58'3 5.9
2018-Feb-17 16:00N 41°38' E 141°02'4 7.6
2018-Feb-17 15:30N 41°39' E 141°07'5 9.6
2018-Feb-17 15:00N 41°39' E 141°13'510.0
2018-Feb-17 14:30N 41°40' E 141°20'5 9.4
2018-Feb-17 14:00N 41°41' E 141°26'4 8.9
2018-Feb-17 13:30N 41°42' E 141°32'4 8.0
2018-Feb-17 12:57N 41°43' E 141°37'  
Track history (hours):
 
Tides and Currents Weather Stations Pressure Air Temp Water Temp Dewpoint Dewpoint Depression Visibility Wind Speed Wind Dir Waves Ship Positions

Star Mariella

Last reported at 2018-Feb-21 02:00 UTC. Time now 2018-Feb-21 02:02 UTC.
Position N 33°39' E 130°19'.

Length 229 m; draft 11.9 m.

Type: Cargo ship. MMSI: 538002632.

Date/timePositionNaut miles runAvg speedWind from/ knotsBaromVisibWave heightAir tempDewpointWater temp
2018-Feb-21 02:00N 33°39' E 130°19'2 4.8
2018-Feb-21 01:30N 33°38' E 130°16'0 0.4
2018-Feb-21 00:55N 33°38' E 130°16'0 0.0
2018-Feb-21 00:28N 33°38' E 130°16'0 0.0
2018-Feb-20 23:55N 33°38' E 130°16'0 0.0
2018-Feb-20 23:28N 33°38' E 130°16'0 0.2
2018-Feb-20 22:58N 33°38' E 130°16'0 0.1
2018-Feb-20 22:28N 33°38' E 130°16'0 0.1
2018-Feb-20 21:55N 33°38' E 130°16'0 0.2
2018-Feb-20 21:25N 33°38' E 130°16'0 0.1
2018-Feb-20 20:55N 33°38' E 130°16'0 0.1
2018-Feb-20 20:28N 33°39' E 130°16'0 0.1
2018-Feb-20 19:58N 33°38' E 130°16'0 0.0
2018-Feb-20 19:25N 33°39' E 130°16'0 0.0
2018-Feb-20 18:58N 33°39' E 130°16'0 0.0
2018-Feb-20 18:28N 33°38' E 130°16'0 0.1
2018-Feb-20 17:58N 33°38' E 130°16'0 0.0
2018-Feb-20 17:28N 33°38' E 130°16'0 0.1
2018-Feb-20 16:55N 33°38' E 130°16'0 0.1
2018-Feb-20 16:30N 33°38' E 130°16'0 0.9
2018-Feb-20 16:00N 33°39' E 130°16'3 6.3
2018-Feb-20 15:30N 33°42' E 130°15'4 7.1
2018-Feb-20 15:00N 33°46' E 130°14'510.7
2018-Feb-20 14:30N 33°51' E 130°14'611.1
2018-Feb-20 14:00N 33°56' E 130°13'510.6
2018-Feb-20 13:30N 34°02' E 130°13'611.1
2018-Feb-20 13:00N 34°07' E 130°14'611.2
2018-Feb-20 12:30N 34°13' E 130°15'611.0
2018-Feb-20 12:00N 34°18' E 130°15'611.0
2018-Feb-20 11:30N 34°23' E 130°19'611.0
2018-Feb-20 11:00N 34°27' E 130°23'610.9
2018-Feb-20 10:27N 34°33' E 130°26'910.8
2018-Feb-20 09:38N 34°40' E 130°33'410.7
2018-Feb-20 09:15N 34°43' E 130°36'510.7
2018-Feb-20 08:44N 34°47' E 130°40'310.4
2018-Feb-20 08:25N 34°50' E 130°42'  
2018-Feb-17 20:49N 41°21' E 140°17'2 7.1
2018-Feb-17 20:30N 41°22' E 140°19'4 8.0
2018-Feb-17 20:00N 41°24' E 140°24'5 9.3
2018-Feb-17 19:30N 41°26' E 140°29'510.1
2018-Feb-17 19:00N 41°29' E 140°34'5 9.8
2018-Feb-17 18:30N 41°32' E 140°40'5 9.3
2018-Feb-17 18:00N 41°35' E 140°45'4 7.8
2018-Feb-17 17:30N 41°37' E 140°49'3 6.9
2018-Feb-17 17:00N 41°38' E 140°54'3 6.3
2018-Feb-17 16:30N 41°38' E 140°58'3 5.9
2018-Feb-17 16:00N 41°38' E 141°02'4 7.6
2018-Feb-17 15:30N 41°39' E 141°07'5 9.6
2018-Feb-17 15:00N 41°39' E 141°13'510.0
2018-Feb-17 14:30N 41°40' E 141°20'5 9.4
2018-Feb-17 14:00N 41°41' E 141°26'4 8.9
2018-Feb-17 13:30N 41°42' E 141°32'4 8.0
2018-Feb-17 12:57N 41°43' E 141°37'  

Dump ship's entire track history